createdAt,value
2019-06-20T00:00:35.665Z,21.39
2019-06-20T00:03:06.547Z,21.32
2019-06-20T00:05:37.074Z,21.35
2019-06-20T00:08:07.776Z,21.24
2019-06-20T00:10:38.341Z,21.19
2019-06-20T00:13:08.842Z,21.07
2019-06-20T00:15:41.260Z,21.08
2019-06-20T00:18:11.897Z,21.06
2019-06-20T00:20:44.530Z,20.97
2019-06-20T00:23:15.135Z,20.94
2019-06-20T00:25:45.650Z,21.00
2019-06-20T00:28:16.334Z,20.92
2019-06-20T00:30:46.919Z,20.89
2019-06-20T00:33:17.468Z,20.86
2019-06-20T00:35:48.065Z,20.79
2019-06-20T00:38:18.588Z,20.77
2019-06-20T00:40:49.231Z,20.79
2019-06-20T00:43:19.786Z,20.78
2019-06-20T00:45:50.298Z,20.70
2019-06-20T00:48:20.952Z,20.67
2019-06-20T00:50:51.518Z,20.58
2019-06-20T00:53:22.112Z,20.47
2019-06-20T00:55:54.986Z,20.49
2019-06-20T00:58:25.640Z,20.43
2019-06-20T01:00:56.265Z,20.41
2019-06-20T01:03:26.802Z,20.48
2019-06-20T01:05:57.352Z,20.37
2019-06-20T01:08:28.032Z,20.30
2019-06-20T01:10:58.599Z,20.27
2019-06-20T01:13:33.410Z,20.26
2019-06-20T01:16:01.414Z,20.17
2019-06-20T01:18:32.006Z,20.24
2019-06-20T01:21:02.755Z,20.27
2019-06-20T01:23:33.256Z,20.31
2019-06-20T01:26:03.784Z,20.36
2019-06-20T01:28:36.244Z,20.41
2019-06-20T01:31:09.820Z,20.44
2019-06-20T01:33:40.482Z,20.44
2019-06-20T01:36:10.991Z,20.42
2019-06-20T01:38:41.530Z,20.36
2019-06-20T01:41:13.510Z,20.27
2019-06-20T01:43:50.602Z,20.25
2019-06-20T01:46:16.697Z,20.19
2019-06-20T01:48:47.213Z,20.14
2019-06-20T01:51:17.744Z,20.12
2019-06-20T01:53:48.395Z,20.06
2019-06-20T01:56:18.968Z,19.96
2019-06-20T01:58:49.557Z,19.97
2019-06-20T02:01:20.073Z,19.89
2019-06-20T02:03:50.585Z,19.85
2019-06-20T02:06:21.345Z,19.80
2019-06-20T02:08:51.945Z,19.78
2019-06-20T02:11:22.551Z,19.73
2019-06-20T02:14:06.514Z,19.68
2019-06-20T02:16:28.185Z,19.65
2019-06-20T02:18:58.764Z,19.63
2019-06-20T02:21:29.345Z,19.39
2019-06-20T02:23:59.972Z,19.45
2019-06-20T02:26:30.594Z,19.49
2019-06-20T02:29:01.100Z,19.47
2019-06-20T02:31:31.691Z,19.48
2019-06-20T02:34:03.285Z,19.41
2019-06-20T02:36:33.820Z,19.33
2019-06-20T02:39:05.096Z,19.36
2019-06-20T02:41:35.632Z,19.27
2019-06-20T02:44:24.689Z,19.20
2019-06-20T02:46:39.039Z,19.19
2019-06-20T02:49:09.597Z,19.17
2019-06-20T02:51:40.449Z,19.04
2019-06-20T02:54:11.006Z,19.09
2019-06-20T02:56:41.673Z,19.08
2019-06-20T02:59:12.218Z,19.07
2019-06-20T03:01:42.745Z,19.04
2019-06-20T03:04:13.332Z,19.03
2019-06-20T03:06:43.970Z,18.97
2019-06-20T03:09:14.605Z,18.96
2019-06-20T03:11:47.814Z,18.92
2019-06-20T03:14:18.413Z,18.87
2019-06-20T03:16:48.921Z,18.76
2019-06-20T03:19:19.478Z,18.78
2019-06-20T03:21:50.102Z,18.79
2019-06-20T03:24:20.636Z,18.75
2019-06-20T03:26:51.123Z,18.69
2019-06-20T03:29:21.811Z,18.62
2019-06-20T03:31:52.354Z,18.62
2019-06-20T03:34:22.982Z,18.64
2019-06-20T03:36:53.501Z,18.67
2019-06-20T03:39:24.043Z,18.58
2019-06-20T03:41:54.692Z,18.58
2019-06-20T03:44:25.225Z,18.64
2019-06-20T03:46:55.779Z,18.60
2019-06-20T03:49:26.411Z,18.56
2019-06-20T03:51:56.934Z,18.54
2019-06-20T03:54:27.590Z,18.54
2019-06-20T03:56:58.104Z,18.46
2019-06-20T03:59:28.637Z,18.39
2019-06-20T04:02:01.338Z,18.46
2019-06-20T04:04:31.921Z,18.46
2019-06-20T04:07:02.538Z,18.48
2019-06-20T04:09:33.119Z,18.50
2019-06-20T04:12:03.818Z,18.53
2019-06-20T04:14:34.370Z,18.56
2019-06-20T04:17:04.922Z,18.56
2019-06-20T04:19:35.525Z,18.56
2019-06-20T04:22:07.879Z,18.57
2019-06-20T04:24:38.368Z,18.58
2019-06-20T04:27:08.945Z,18.56
2019-06-20T04:29:39.523Z,18.56
2019-06-20T04:32:10.117Z,18.62
2019-06-20T04:34:42.858Z,18.65
2019-06-20T04:37:13.380Z,18.63
2019-06-20T04:39:45.890Z,18.67
2019-06-20T04:42:18.601Z,18.71
2019-06-20T04:44:49.619Z,18.77
2019-06-20T04:47:20.173Z,18.80
2019-06-20T04:49:50.724Z,18.83
2019-06-20T04:52:21.345Z,18.86
2019-06-20T04:54:51.927Z,18.92
2019-06-20T04:57:23.333Z,18.97
2019-06-20T05:00:02.415Z,19.03
2019-06-20T05:02:41.272Z,19.04
2019-06-20T05:05:15.798Z,19.06
2019-06-20T05:07:46.433Z,19.10
2019-06-20T05:10:19.628Z,19.16
2019-06-20T05:12:50.270Z,19.22
2019-06-20T05:15:23.079Z,19.23
2019-06-20T05:17:53.648Z,19.22
2019-06-20T05:20:24.257Z,19.26
2019-06-20T05:22:54.865Z,19.29
2019-06-20T05:25:26.597Z,19.30
2019-06-20T05:27:57.211Z,19.34
2019-06-20T05:30:27.781Z,19.43
2019-06-20T05:32:58.388Z,19.46
2019-06-20T05:35:28.944Z,19.41
2019-06-20T05:37:59.896Z,19.51
2019-06-20T05:40:30.537Z,19.56
2019-06-20T05:43:01.106Z,19.57
2019-06-20T05:45:31.719Z,19.57
2019-06-20T05:48:02.257Z,19.62
2019-06-20T05:50:32.825Z,19.57
2019-06-20T05:53:03.428Z,19.66
2019-06-20T05:55:33.954Z,19.70
2019-06-20T05:58:04.518Z,19.75
2019-06-20T06:00:35.099Z,19.77
2019-06-20T06:03:07.141Z,19.82
2019-06-20T06:05:37.964Z,19.85
2019-06-20T06:08:08.592Z,19.84
2019-06-20T06:10:41.391Z,19.84
2019-06-20T06:13:11.933Z,19.85
2019-06-20T06:15:42.519Z,19.91
2019-06-20T06:18:14.131Z,19.87
2019-06-20T06:20:45.223Z,19.91
2019-06-20T06:23:15.984Z,19.95
2019-06-20T06:25:46.641Z,19.95
2019-06-20T06:28:17.225Z,20.00
2019-06-20T06:30:47.880Z,20.00
2019-06-20T06:33:18.623Z,20.04
2019-06-20T06:35:49.884Z,20.04
2019-06-20T06:38:22.505Z,20.10
2019-06-20T06:40:54.681Z,20.17
2019-06-20T06:43:27.822Z,20.21
2019-06-20T06:46:03.087Z,20.16
2019-06-20T06:48:36.754Z,20.18
2019-06-20T06:51:09.300Z,20.17
2019-06-20T06:53:44.483Z,20.20
2019-06-20T06:56:16.515Z,20.23
2019-06-20T06:58:47.160Z,20.30
2019-06-20T07:01:17.744Z,20.27
2019-06-20T07:03:48.256Z,20.29
2019-06-20T07:06:18.935Z,20.37
2019-06-20T07:08:49.497Z,20.39
2019-06-20T07:11:20.224Z,20.40
2019-06-20T07:13:50.821Z,20.39
2019-06-20T07:16:23.895Z,20.42
2019-06-20T07:18:55.169Z,20.51
2019-06-20T07:21:27.188Z,20.64
2019-06-20T07:23:57.789Z,20.67
2019-06-20T07:26:29.922Z,20.56
2019-06-20T07:29:00.476Z,20.64
2019-06-20T07:31:31.046Z,20.64
2019-06-20T07:34:01.590Z,20.72
2019-06-20T07:36:32.245Z,20.77
2019-06-20T07:39:02.902Z,20.85
2019-06-20T07:41:36.425Z,20.90
2019-06-20T07:44:08.471Z,20.95
2019-06-20T07:46:39.061Z,20.94
2019-06-20T07:49:10.623Z,20.94
2019-06-20T07:51:41.211Z,20.92
2019-06-20T07:54:11.797Z,20.94
2019-06-20T07:56:42.395Z,21.00
2019-06-20T07:59:12.986Z,21.07
2019-06-20T08:01:43.591Z,21.11
2019-06-20T08:04:17.040Z,21.12
2019-06-20T08:06:49.785Z,21.11
2019-06-20T08:09:22.154Z,21.15
2019-06-20T08:11:52.884Z,21.16
2019-06-20T08:14:23.599Z,21.18
2019-06-20T08:16:54.245Z,21.23
2019-06-20T08:19:24.796Z,21.23
2019-06-20T08:21:57.141Z,21.26
2019-06-20T08:24:27.683Z,21.27
2019-06-20T08:26:58.708Z,21.28
2019-06-20T08:29:29.825Z,21.29
2019-06-20T08:32:01.049Z,21.33
2019-06-20T08:34:32.755Z,21.41
2019-06-20T08:37:04.366Z,21.48
2019-06-20T08:39:35.031Z,21.47
2019-06-20T08:42:06.378Z,21.49
2019-06-20T08:44:38.216Z,21.45
2019-06-20T08:47:12.559Z,21.41
2019-06-20T08:49:44.646Z,21.53
2019-06-20T08:52:15.821Z,21.62
2019-06-20T08:54:46.443Z,21.66
2019-06-20T08:57:17.023Z,21.62
2019-06-20T08:59:49.932Z,21.62
2019-06-20T09:02:20.991Z,21.76
2019-06-20T09:04:51.678Z,21.69
2019-06-20T09:07:22.269Z,21.74
2019-06-20T09:09:53.165Z,21.83
2019-06-20T09:12:24.765Z,21.92
2019-06-20T09:14:56.827Z,21.84
2019-06-20T09:17:27.519Z,21.90
2019-06-20T09:19:58.104Z,21.84
2019-06-20T09:22:28.651Z,21.86
2019-06-20T09:24:59.177Z,21.87
2019-06-20T09:27:29.831Z,21.82
2019-06-20T09:30:00.574Z,21.91
2019-06-20T09:32:31.186Z,21.85
2019-06-20T09:35:02.917Z,21.94
2019-06-20T09:37:35.973Z,22.06
2019-06-20T09:40:07.821Z,22.07
2019-06-20T09:42:39.125Z,22.10
2019-06-20T09:45:10.225Z,22.15
2019-06-20T09:47:40.745Z,22.17
2019-06-20T09:50:11.940Z,22.17
2019-06-20T09:52:42.610Z,22.20
2019-06-20T09:55:13.908Z,22.20
2019-06-20T09:57:44.556Z,22.20
2019-06-20T10:00:18.651Z,22.20
2019-06-20T10:02:50.665Z,22.23
2019-06-20T10:05:21.863Z,22.25
2019-06-20T10:07:52.515Z,22.38
2019-06-20T10:10:29.221Z,22.42
2019-06-20T10:12:59.803Z,22.44
2019-06-20T10:15:33.226Z,22.37
2019-06-20T10:18:03.734Z,22.46
2019-06-20T10:20:34.570Z,22.53
2019-06-20T10:23:05.216Z,22.54
2019-06-20T10:25:35.756Z,22.51
2019-06-20T10:28:06.922Z,22.50
2019-06-20T10:30:37.454Z,22.49
2019-06-20T10:33:08.094Z,22.51
2019-06-20T10:35:38.608Z,22.49
2019-06-20T10:38:10.719Z,22.53
2019-06-20T10:40:41.260Z,22.54
2019-06-20T10:43:13.095Z,22.44
2019-06-20T10:45:45.837Z,22.50
2019-06-20T10:48:16.527Z,22.54
2019-06-20T10:50:47.716Z,22.55
2019-06-20T10:53:18.294Z,22.65
2019-06-20T10:55:49.081Z,22.68
2019-06-20T10:58:19.666Z,22.71
2019-06-20T11:00:50.452Z,22.61
2019-06-20T11:03:20.985Z,22.71
2019-06-20T11:05:51.497Z,22.72
2019-06-20T11:08:23.844Z,22.72
2019-06-20T11:10:54.405Z,22.71
2019-06-20T11:13:24.957Z,22.72
2019-06-20T11:15:55.575Z,22.74
2019-06-20T11:18:26.142Z,22.63
2019-06-20T11:20:56.820Z,22.71
2019-06-20T11:23:27.370Z,22.77
2019-06-20T11:25:57.939Z,22.78
2019-06-20T11:28:28.524Z,22.92
2019-06-20T11:31:00.672Z,23.05
2019-06-20T11:33:31.398Z,23.09
2019-06-20T11:36:01.988Z,23.18
2019-06-20T11:38:40.644Z,23.32
2019-06-20T11:41:11.335Z,23.32
2019-06-20T11:43:42.262Z,23.40
2019-06-20T11:46:12.780Z,23.38
2019-06-20T11:48:43.409Z,23.40
2019-06-20T11:51:14.141Z,23.44
2019-06-20T11:53:44.683Z,23.53
2019-06-20T11:56:15.278Z,23.52
2019-06-20T11:58:45.909Z,23.53
2019-06-20T12:01:16.402Z,23.58
2019-06-20T12:03:46.958Z,23.62
2019-06-20T12:06:17.587Z,23.71
2019-06-20T12:08:49.030Z,23.65
2019-06-20T12:11:19.707Z,23.64
2019-06-20T12:13:50.284Z,23.77
2019-06-20T12:16:20.939Z,23.86
2019-06-20T12:18:51.620Z,23.91
2019-06-20T12:21:24.250Z,23.95
2019-06-20T12:23:54.868Z,24.01
2019-06-20T12:26:25.428Z,24.01
2019-06-20T12:28:56.013Z,23.94
2019-06-20T12:31:26.617Z,23.98
2019-06-20T12:33:57.204Z,24.01
2019-06-20T12:36:28.961Z,24.04
2019-06-20T12:38:59.539Z,24.08
2019-06-20T12:41:30.168Z,24.11
2019-06-20T12:44:00.855Z,24.06
2019-06-20T12:46:32.599Z,23.85
2019-06-20T12:49:03.218Z,23.75
2019-06-20T12:51:33.781Z,23.76
2019-06-20T12:54:04.461Z,23.74
2019-06-20T12:56:35.025Z,23.65
2019-06-20T12:59:05.731Z,23.66
2019-06-20T13:01:40.577Z,23.64
2019-06-20T13:04:08.625Z,23.69
2019-06-20T13:06:40.481Z,23.63
2019-06-20T13:09:11.157Z,23.63
2019-06-20T13:11:42.647Z,23.51
2019-06-20T13:14:13.284Z,23.54
2019-06-20T13:16:43.918Z,23.61
2019-06-20T13:19:14.547Z,23.71
2019-06-20T13:21:48.620Z,23.66
2019-06-20T13:24:19.248Z,23.60
2019-06-20T13:26:53.979Z,23.69
2019-06-20T13:29:24.619Z,23.83
2019-06-20T13:32:03.951Z,23.85
2019-06-20T13:34:27.425Z,23.80
2019-06-20T13:36:57.982Z,23.85
2019-06-20T13:39:28.651Z,23.86
2019-06-20T13:41:59.089Z,23.90
2019-06-20T13:44:29.749Z,24.01
2019-06-20T13:47:00.288Z,24.13
2019-06-20T13:49:30.956Z,24.10
2019-06-20T13:52:01.528Z,24.00
2019-06-20T13:54:32.164Z,24.13
2019-06-20T13:57:02.746Z,24.16
2019-06-20T13:59:33.354Z,24.27
2019-06-20T14:02:06.997Z,24.28
2019-06-20T14:04:36.256Z,24.21
2019-06-20T14:07:06.868Z,24.17
2019-06-20T14:09:37.457Z,24.19
2019-06-20T14:12:08.020Z,24.30
2019-06-20T14:14:38.703Z,24.40
2019-06-20T14:17:09.304Z,24.40
2019-06-20T14:19:40.110Z,24.34
2019-06-20T14:22:10.640Z,24.26
2019-06-20T14:24:43.389Z,24.27
2019-06-20T14:27:13.616Z,24.33
2019-06-20T14:29:44.976Z,24.37
2019-06-20T14:32:22.094Z,24.37
2019-06-20T14:34:50.332Z,24.30
2019-06-20T14:37:21.038Z,24.46
2019-06-20T14:39:52.656Z,24.49
2019-06-20T14:42:23.385Z,24.48
2019-06-20T14:44:54.226Z,24.69
2019-06-20T14:47:24.886Z,24.87
2019-06-20T14:49:55.507Z,24.88
2019-06-20T14:52:28.773Z,24.89
2019-06-20T14:54:59.336Z,24.87
2019-06-20T14:57:29.903Z,24.73
2019-06-20T15:00:00.519Z,24.76
2019-06-20T15:02:38.543Z,24.71
2019-06-20T15:05:03.483Z,24.88
2019-06-20T15:07:34.098Z,24.97
2019-06-20T15:10:05.374Z,24.95
2019-06-20T15:12:35.947Z,25.16
2019-06-20T15:15:06.789Z,25.23
2019-06-20T15:17:37.343Z,25.06
2019-06-20T15:20:08.545Z,24.94
2019-06-20T15:22:39.163Z,24.96
2019-06-20T15:25:09.982Z,24.94
2019-06-20T15:27:40.639Z,24.81
2019-06-20T15:30:12.282Z,24.90
2019-06-20T15:32:55.255Z,25.00
2019-06-20T15:35:15.623Z,25.19
2019-06-20T15:37:47.678Z,25.44
2019-06-20T15:40:19.543Z,25.60
2019-06-20T15:42:51.567Z,25.78
2019-06-20T15:45:23.119Z,25.55
2019-06-20T15:47:53.761Z,25.70
2019-06-20T15:50:24.325Z,25.72
2019-06-20T15:52:54.907Z,25.86
2019-06-20T15:55:25.529Z,25.90
2019-06-20T15:57:57.770Z,26.04
2019-06-20T16:00:28.365Z,25.94
2019-06-20T16:03:09.621Z,25.87
2019-06-20T16:05:31.341Z,25.89
2019-06-20T16:08:02.072Z,25.67
2019-06-20T16:10:32.846Z,25.57
2019-06-20T16:13:03.444Z,25.52
2019-06-20T16:15:34.096Z,25.36
2019-06-20T16:18:04.659Z,25.25
2019-06-20T16:20:35.280Z,24.94
2019-06-20T16:23:05.975Z,24.85
2019-06-20T16:25:36.624Z,24.91
2019-06-20T16:28:07.201Z,24.86
2019-06-20T16:30:37.758Z,25.01
2019-06-20T16:33:08.363Z,24.97
2019-06-20T16:35:39.013Z,24.87
2019-06-20T16:38:09.611Z,25.03
2019-06-20T16:40:48.032Z,25.20
2019-06-20T16:43:18.620Z,25.14
2019-06-20T16:45:49.137Z,25.29
2019-06-20T16:48:21.533Z,25.33
2019-06-20T16:50:52.073Z,25.11
2019-06-20T16:53:22.696Z,24.97
2019-06-20T16:55:53.278Z,24.85
2019-06-20T16:58:23.906Z,24.84
2019-06-20T17:00:54.509Z,24.41
2019-06-20T17:03:40.692Z,24.24
2019-06-20T17:05:57.419Z,24.01
2019-06-20T17:08:27.992Z,24.02
2019-06-20T17:10:58.709Z,23.98
2019-06-20T17:13:29.278Z,23.95
2019-06-20T17:15:59.919Z,23.72
2019-06-20T17:18:30.504Z,23.60
2019-06-20T17:21:01.067Z,23.44
2019-06-20T17:23:31.861Z,23.31
2019-06-20T17:26:04.265Z,23.24
2019-06-20T17:28:34.857Z,23.08
2019-06-20T17:31:05.489Z,22.95
2019-06-20T17:33:36.038Z,22.94
2019-06-20T17:36:17.742Z,22.93
2019-06-20T17:38:40.198Z,22.77
2019-06-20T17:41:12.238Z,22.67
2019-06-20T17:43:44.588Z,22.55
2019-06-20T17:46:15.168Z,22.57
2019-06-20T17:48:45.799Z,22.52
2019-06-20T17:51:16.334Z,22.52
2019-06-20T17:53:49.613Z,22.45
2019-06-20T17:56:19.278Z,22.42
2019-06-20T17:58:49.875Z,22.23
2019-06-20T18:01:20.514Z,22.25
2019-06-20T18:03:51.105Z,22.03
2019-06-20T18:06:21.678Z,21.95
2019-06-20T18:08:52.323Z,21.84
2019-06-20T18:11:22.950Z,21.83
2019-06-20T18:13:53.551Z,21.87
2019-06-20T18:16:25.477Z,21.92
2019-06-20T18:18:56.162Z,21.94
2019-06-20T18:21:26.799Z,21.93
2019-06-20T18:23:57.474Z,21.82
2019-06-20T18:26:28.120Z,21.84
2019-06-20T18:28:58.655Z,21.80
2019-06-20T18:31:29.333Z,21.77
2019-06-20T18:33:59.943Z,21.78
2019-06-20T18:36:30.602Z,21.76
2019-06-20T18:39:01.151Z,21.77
2019-06-20T18:41:31.814Z,21.72
2019-06-20T18:44:02.411Z,21.67
2019-06-20T18:46:33.042Z,21.68
2019-06-20T18:49:03.626Z,21.63
2019-06-20T18:51:34.198Z,21.53
2019-06-20T18:54:05.309Z,21.49
2019-06-20T18:56:35.847Z,21.44
2019-06-20T18:59:06.538Z,21.44
2019-06-20T19:01:37.190Z,21.43
2019-06-20T19:04:07.837Z,21.32
2019-06-20T19:06:38.419Z,21.10
2019-06-20T19:09:10.497Z,21.15
2019-06-20T19:11:41.078Z,21.21
2019-06-20T19:14:12.743Z,21.16
2019-06-20T19:16:43.503Z,21.18
2019-06-20T19:19:14.026Z,21.26
2019-06-20T19:21:44.681Z,21.29
2019-06-20T19:24:15.273Z,21.13
2019-06-20T19:26:45.875Z,21.13
2019-06-20T19:29:16.497Z,21.12
2019-06-20T19:31:47.141Z,21.06
2019-06-20T19:34:17.710Z,21.06
2019-06-20T19:36:48.317Z,20.99
2019-06-20T19:39:18.939Z,20.99
2019-06-20T19:41:49.581Z,20.95
2019-06-20T19:44:20.128Z,20.90
2019-06-20T19:46:50.709Z,20.87
2019-06-20T19:49:21.375Z,20.71
2019-06-20T19:51:51.894Z,20.69
2019-06-20T19:54:22.549Z,20.62
2019-06-20T19:56:53.100Z,20.66
2019-06-20T19:59:26.254Z,20.62
2019-06-20T20:01:58.191Z,20.67
2019-06-20T20:04:28.739Z,20.45
2019-06-20T20:07:02.455Z,20.33
2019-06-20T20:09:33.086Z,20.36
2019-06-20T20:12:03.717Z,20.35
2019-06-20T20:14:36.359Z,20.29
2019-06-20T20:17:07.123Z,20.33
2019-06-20T20:19:37.696Z,20.21
2019-06-20T20:22:08.247Z,20.22
2019-06-20T20:24:38.857Z,19.86
2019-06-20T20:27:09.571Z,19.77
2019-06-20T20:29:40.202Z,19.52
2019-06-20T20:32:10.762Z,19.63
2019-06-20T20:34:41.317Z,19.62
2019-06-20T20:37:12.998Z,19.67
2019-06-20T20:39:43.541Z,19.43
2019-06-20T20:42:17.545Z,19.44
2019-06-20T20:44:46.471Z,19.38
2019-06-20T20:47:17.035Z,19.28
2019-06-20T20:49:49.771Z,19.30
2019-06-20T20:52:20.297Z,19.35
2019-06-20T20:54:50.902Z,19.30
2019-06-20T20:57:21.474Z,19.35
2019-06-20T20:59:52.105Z,19.29
2019-06-20T21:02:22.690Z,18.95
2019-06-20T21:04:53.203Z,18.89
2019-06-20T21:07:23.830Z,18.91
2019-06-20T21:09:55.731Z,18.78
2019-06-20T21:12:26.337Z,18.77
2019-06-20T21:14:56.901Z,18.86
2019-06-20T21:17:27.503Z,18.88
2019-06-20T21:19:58.075Z,18.81
2019-06-20T21:22:28.664Z,18.84
2019-06-20T21:24:59.326Z,18.72
2019-06-20T21:27:29.908Z,18.51
2019-06-20T21:30:00.611Z,18.48
2019-06-20T21:32:31.170Z,18.54
2019-06-20T21:35:01.788Z,18.55
2019-06-20T21:37:32.386Z,18.45
2019-06-20T21:40:03.064Z,18.45
2019-06-20T21:42:33.604Z,18.54
2019-06-20T21:45:04.549Z,18.62
2019-06-20T21:47:35.164Z,18.45
2019-06-20T21:50:06.320Z,18.37
2019-06-20T21:52:37.001Z,18.30
2019-06-20T21:55:07.814Z,18.37
2019-06-20T21:57:40.184Z,18.49
2019-06-20T22:00:19.244Z,18.42
2019-06-20T22:02:49.882Z,18.34
2019-06-20T22:05:20.416Z,18.40
2019-06-20T22:07:51.039Z,18.42
2019-06-20T22:10:21.971Z,18.46
2019-06-20T22:12:52.544Z,18.46
2019-06-20T22:15:23.274Z,18.51
2019-06-20T22:17:56.613Z,18.54
2019-06-20T22:20:27.423Z,18.53
2019-06-20T22:22:57.999Z,18.51
2019-06-20T22:25:28.718Z,18.30
2019-06-20T22:27:59.241Z,18.28
2019-06-20T22:30:50.276Z,18.39
2019-06-20T22:33:20.863Z,18.49
2019-06-20T22:35:52.395Z,18.48
2019-06-20T22:38:23.063Z,18.37
2019-06-20T22:40:53.760Z,18.26
2019-06-20T22:43:24.321Z,18.31
2019-06-20T22:45:55.035Z,18.38
2019-06-20T22:48:26.622Z,18.43
2019-06-20T22:50:58.552Z,18.45
2019-06-20T22:53:29.093Z,18.27
2019-06-20T22:55:59.586Z,18.30
2019-06-20T22:58:34.320Z,18.32
2019-06-20T23:01:04.970Z,18.34
2019-06-20T23:03:35.743Z,18.38
2019-06-20T23:06:06.296Z,18.37
2019-06-20T23:08:36.924Z,18.24
2019-06-20T23:11:07.461Z,18.11
2019-06-20T23:13:38.063Z,17.85
2019-06-20T23:16:08.755Z,17.96
2019-06-20T23:18:39.304Z,18.04
2019-06-20T23:21:09.912Z,18.10
2019-06-20T23:23:40.431Z,18.04
2019-06-20T23:26:12.414Z,18.05
2019-06-20T23:28:42.952Z,18.08
2019-06-20T23:31:13.564Z,18.07
2019-06-20T23:33:45.063Z,18.06
2019-06-20T23:36:17.748Z,18.09
2019-06-20T23:38:50.266Z,18.14
2019-06-20T23:41:23.038Z,18.14
2019-06-20T23:43:53.629Z,18.18
2019-06-20T23:46:25.744Z,18.02
2019-06-20T23:48:56.354Z,17.91
2019-06-20T23:51:28.580Z,17.99
2019-06-20T23:54:00.720Z,18.03
2019-06-20T23:56:31.235Z,18.05
2019-06-20T23:59:01.789Z,18.05
